X  CloseMetar Aviation Weather Data     EKYT Aalborg

Temperature

18°C Temperature

16°C Dewpoint

88% Humidity



Wind

23 KM/H

14 MPH

 6 M/S

12 KTS



120°
East South
East
Current Conditions

Mostly Cloudy Mostly Cloudy
Pressure 1011.92 (hPa) - 29.88 (in)
Visibility 6.2 (mi) - 10 (km)
Airport
Airport-code EKYT

Location Aalborg 55 (km)

Metar:
EKYT 200850Z AUTO 12012KT 9999 BKN055/// 18/16 Q1012

Time: 20-07-2019 10:50